• Join FlightAware (Why Join?)
  • Login
  • US Flag 
10:16PM EDT


 

Airport Tracker/Info


-or-


 

Live Flight TrackerFlight Track Log ✈ DAL1551 ✈ 12-May-2013 ✈ KLAS - KMSP

Flight Track Log - Related Links

Times and Time Zones

All times are in EDT time to prevent confusion due to time zone crossing. See the DAL1551 flight status page for this flight to view local times or setup timezone preferences in your user account.

Time Position Orientation Groundspeed Altitude Reporting Facility
EDT Latitude Longitude Course Direction KTS MPH feet Rate Location/Type
10:34PM 36.0747 -115.1819 94° East 200 230 3,300  Level Los Angeles Center
10:35PM 36.0856 -115.2822 278° West 242 278 5,900 2,160 Climbing Los Angeles Center
10:36PM 36.1083 -115.2939 338° Northwest 254 292 6,900 2,400 Climbing Los Angeles Center
10:36PM 36.1467 -115.2942 360° North 239 275 8,400 2,460 Climbing Los Angeles Center
10:37PM 36.1833 -114.9045 90° East  Level FlightAware Approximate
10:37PM 36.1669 -115.2675 47° Northeast 255 293 9,500  Level Los Angeles Center
10:38PM 36.1991 -114.7512 94° East  Level FlightAware Approximate
10:38PM 36.1969 -115.1825 66° East 267 307 10,900  Level Los Angeles Center
10:39PM 36.1894 -114.5966 94° East  Level FlightAware Approximate
10:39PM 36.1975 -115.0617 90° East 342 394 12,200  Level Los Angeles Center
10:40PM 36.1983 -114.9275 90° East 378 435 14,200 1,920 Climbing Los Angeles Center
10:41PM 36.2000 -114.7872 89° East 400 460 16,200 1,980 Climbing Los Angeles Center
10:42PM 36.1975 -114.6397 91° East 424 488 18,300 2,100 Climbing Los Angeles Center
10:43PM 36.1956 -114.4636 91° East 427 491 20,600 1,800 Climbing Los Angeles Center
10:44PM 36.1922 -114.3119 92° East 438 504 22,000 1,320 Climbing Los Angeles Center
10:45PM 36.2444 -114.1758 65° Northeast 460 529 23,400 1,380 Climbing Los Angeles Center
10:46PM 36.3211 -114.0511 53° Northeast 460 529 24,900 1,740 Climbing Los Angeles Center
10:47PM 36.3942 -113.9239 54° Northeast 457 526 27,100 1,920 Climbing Los Angeles Center
10:48PM 36.4658 -113.7997 54° Northeast 446 513 28,900 900 Climbing Los Angeles Center
10:49PM 36.5400 -113.6719 54° Northeast 435 501 29,000  Climbing Los Angeles Center
10:50PM 36.6081 -113.5483 56° Northeast 434 499 29,000  Level Los Angeles Center
10:51PM 36.6781 -113.4258 55° Northeast 435 501 29,000  Level Los Angeles Center
10:52PM 36.7472 -113.3025 55° Northeast 435 501 29,000  Level Los Angeles Center
10:53PM 36.8292 -113.1542 55° Northeast 435 501 29,000  Level Los Angeles Center
10:54PM 36.8986 -113.0311 55° Northeast 436 502 29,000  Level Los Angeles Center
10:55PM 36.9667 -112.9081 55° Northeast 434 499 29,000  Level Los Angeles Center
10:56PM 37.0361 -112.7828 55° Northeast 438 504 29,000  Level Los Angeles Center
10:57PM 37.1050 -112.6586 55° Northeast 439 505 29,000  Level Los Angeles Center
10:58PM 37.1739 -112.5339 55° Northeast 439 505 29,000  Level Los Angeles Center
10:59PM 37.2569 -112.3856 55° Northeast 438 504 29,000  Level Los Angeles Center
11:00PM 37.3258 -112.2608 55° Northeast 438 504 29,000  Level Los Angeles Center
11:01PM 37.3942 -112.1339 56° Northeast 439 505 29,000  Level Salt Lake Center
11:02PM 37.4622 -112.0083 56° Northeast 439 505 29,000  Level Salt Lake Center
11:03PM 37.5303 -111.8828 56° Northeast 437 503 29,000  Level Salt Lake Center
11:04PM 37.5714 -111.8061 56° Northeast 438 504 29,000  Level Denver Center
11:05PM 37.6394 -111.6781 56° Northeast 442 509 29,000  Level Denver Center
11:05PM 37.6672 -111.6272 55° Northeast 442 509 29,000  Level Salt Lake Center
11:06PM 37.7344 -111.4992 56° Northeast 441 507 29,000  Level Salt Lake Center
11:07PM 37.8028 -111.3711 56° Northeast 441 507 29,000  Level Salt Lake Center
11:08PM 37.8714 -111.2425 56° Northeast 442 509 29,000  Level Salt Lake Center
11:09PM 37.9397 -111.1131 56° Northeast 443 510 29,000  Level Salt Lake Center
11:10PM 37.9794 -111.0350 57° Northeast 440 506 29,000  Level Denver Center
11:11PM 38.0597 -110.8803 57° Northeast 442 509 29,000  Level Denver Center
11:11PM 38.0819 -110.8394 55° Northeast 443 510 29,000  Level Salt Lake Center
11:12PM 38.1475 -110.7133 57° Northeast 446 513 29,000  Level Salt Lake Center
11:13PM 38.2233 -110.5669 57° Northeast 445 512 29,000  Level Salt Lake Center
11:14PM 38.2658 -110.4819 57° Northeast 445 512 29,000  Level Denver Center
11:15PM 38.3314 -110.3553 57° Northeast 446 513 29,000  Level Denver Center
11:16PM 38.3969 -110.2294 56° Northeast 446 513 29,000  Level Denver Center
11:16PM 38.4300 -110.1669 56° Northeast 445 512 29,000  Level Salt Lake Center
11:17PM 38.4719 -110.0817 58° Northeast 445 512 29,000  Level Denver Center
11:18PM 38.5367 -109.9528 57° Northeast 449 517 29,000  Level Denver Center
11:19PM 38.6131 -109.8039 57° Northeast 450 518 29,000  Level Denver Center
11:20PM 38.6775 -109.6747 57° Northeast 450 518 29,000  Level Denver Center
11:21PM 38.7408 -109.5431 58° Northeast 457 526 29,000  Level Denver Center
11:22PM 38.8158 -109.3931 57° Northeast 451 519 29,000  Level Denver Center
11:23PM 38.8808 -109.2642 57° Northeast 451 519 29,000  Level Denver Center
11:24PM 38.9444 -109.1336 58° Northeast 452 520 29,000  Level Denver Center
11:25PM 39.0189 -108.9822 58° Northeast 449 517 29,000  Level Denver Center
11:26PM 39.0817 -108.8522 58° Northeast 448 516 29,000  Level Denver Center
11:27PM 39.1553 -108.7014 58° Northeast 449 517 29,000  Level Denver Center
11:28PM 39.2181 -108.5719 58° Northeast 448 516 29,000  Level Denver Center
11:29PM 39.2925 -108.4206 58° Northeast 450 518 29,000  Level Denver Center
11:30PM 39.3569 -108.2878 58° Northeast 458 527 29,000  Level Denver Center
11:31PM 39.4169 -108.1589 59° Northeast 443 510 29,000  Level Denver Center
11:32PM 39.4908 -108.0058 58° Northeast 450 518 29,000  Level Denver Center
11:33PM 39.5531 -107.8744 58° Northeast 449 517 29,000  Level Denver Center
11:34PM 39.6150 -107.7422 59° Northeast 448 516 29,000  Level Denver Center
11:35PM 39.6878 -107.5875 59° Northeast 451 519 29,000  Level Denver Center
11:36PM 39.7503 -107.4544 59° Northeast 450 518 29,000  Level Denver Center
11:37PM 39.8222 -107.3000 59° Northeast 448 516 29,000  Level Denver Center
11:38PM 39.8800 -107.1764 59° Northeast 446 513 29,000  Level Denver Center
11:39PM 39.9472 -107.0350 58° Northeast 453 521 29,000  Level Denver Center
11:41PM 40.0192 -106.8764 59° Northeast 452 520 29,000  Level Denver Center
11:42PM 40.0914 -106.7189 59° Northeast 453 521 29,000  Level Denver Center
11:43PM 40.1642 -106.5614 59° Northeast 454 522 29,000  Level Denver Center
11:44PM 40.2247 -106.4264 60° Northeast 451 519 29,000  Level Denver Center
11:45PM 40.2861 -106.2922 59° Northeast 449 517 29,000  Level Denver Center
11:46PM 40.3453 -106.1569 60° Northeast 448 516 29,000  Level Denver Center
11:47PM 40.4089 -106.0139 60° Northeast 451 519 29,000  Level Denver Center
11:48PM 40.4878 -105.8394 59° Northeast 454 522 29,000  Level Denver Center
11:49PM 40.5494 -105.6986 60° Northeast 454 522 29,000  Level Denver Center
11:50PM 40.6122 -105.5569 60° Northeast 451 519 29,000  Level Denver Center
11:51PM 40.6781 -105.4033 60° Northeast 451 519 29,000  Level Denver Center
11:52PM 40.7378 -105.2667 60° Northeast 451 519 29,000  Level Denver Center
11:53PM 40.7967 -105.1314 60° Northeast 448 516 29,000  Level Denver Center
11:54PM 40.8664 -104.9719 60° Northeast 449 517 29,000  Level Denver Center
11:55PM 40.9150 -104.8572 61° Northeast 449 517 29,000  Level Denver Center
11:56PM 40.9844 -104.6994 60° Northeast 446 513 29,000  Level Denver Center
11:57PM 41.0519 -104.5394 61° Northeast 446 513 29,000  Level Denver Center
11:58PM 41.1094 -104.4022 61° Northeast 446 513 29,000  Level Denver Center
11:59PM 41.1675 -104.2653 61° Northeast 445 512 29,000  Level Denver Center
12:00AM 41.2353 -104.1058 60° Northeast 444 511 29,000  Level Denver Center
12:01AM 41.2917 -103.9692 61° Northeast 444 511 29,000  Level Denver Center
12:02AM 41.3586 -103.8094 61° Northeast 444 511 29,000  Level Denver Center
12:03AM 41.4167 -103.6708 61° Northeast 448 516 29,000  Level Denver Center
12:04AM 41.4736 -103.5308 61° Northeast 450 518 29,000  Level Denver Center
12:05AM 41.5411 -103.3692 61° Northeast 449 517 29,000  Level Denver Center
12:06AM 41.5978 -103.2300 61° Northeast 448 516 29,000  Level Denver Center
12:07AM 41.6542 -103.0911 61° Northeast 445 512 29,000  Level Denver Center
12:08AM 41.7206 -102.9272 61° Northeast 447 514 29,000  Level Denver Center
12:09AM 41.7772 -102.7867 62° Northeast 449 517 29,000  Level Denver Center
12:10AM 41.8428 -102.6225 62° Northeast 448 516 29,000  Level Denver Center
12:11AM 41.9017 -102.4794 61° Northeast 454 522 29,000  Level Denver Center
12:12AM 41.9575 -102.3361 62° Northeast 454 522 29,000  Level Denver Center
12:13AM 42.0228 -102.1725 62° Northeast 451 519 29,000  Level Denver Center
12:14AM 42.0792 -102.0286 62° Northeast 453 521 29,000  Level Denver Center
12:15AM 42.1353 -101.8853 62° Northeast 453 521 29,000  Level Denver Center
12:16AM 42.2003 -101.7175 62° Northeast 452 520 29,000  Level Denver Center
12:17AM 42.2550 -101.5742 63° Northeast 450 518 29,000  Level Denver Center
12:18AM 42.3092 -101.4308 63° Northeast 449 517 29,000  Level Denver Center
12:19AM 42.3728 -101.2628 63° Northeast 449 517 29,000  Level Denver Center
12:20AM 42.4281 -101.1183 63° Northeast 450 518 29,000  Level Denver Center
12:21AM 42.4822 -100.9736 63° Northeast 450 518 29,000  Level Denver Center
12:22AM 42.5467 -100.8033 63° Northeast 454 522 29,000  Level Denver Center
12:23AM 42.6000 -100.6589 63° Northeast 449 517 29,000  Level Denver Center
12:24AM 42.6622 -100.4906 63° Northeast 446 513 29,000  Level Denver Center
12:25AM 42.7167 -100.3436 63° Northeast 451 519 29,000  Level Denver Center
12:26AM 42.7742 -100.1850 64° Northeast 454 522 29,000  Level Denver Center
12:27AM 42.8294 -100.0319 64° Northeast 453 521 29,000  Level Denver Center
12:28AM 42.8856 -99.8811 63° Northeast 450 518 29,000  Level Denver Center
12:29AM 42.9297 -99.7611 63° Northeast 450 518 29,000  Level Minneapolis Center
12:30AM 42.9900 -99.5933 64° Northeast 449 517 29,000  Level Minneapolis Center
12:31AM 43.0450 -99.4419 64° Northeast 445 512 29,000  Level Minneapolis Center
12:32AM 43.1106 -99.2572 64° Northeast 448 516 29,000  Level Minneapolis Center
12:33AM 43.1575 -99.1225 64° Northeast 445 512 29,000  Level Minneapolis Center
12:34AM 43.2003 -99.0014 64° Northeast 444 511 29,000  Level Minneapolis Center
12:35AM 43.2628 -98.8222 64° Northeast 441 507 29,000  Level Minneapolis Center
12:36AM 43.3153 -98.6703 65° Northeast 442 509 29,000  Level Minneapolis Center
12:37AM 43.3694 -98.5181 64° Northeast 444 511 29,000  Level Minneapolis Center
12:38AM 43.4164 -98.3617 68° East 444 511 29,000  Level Minneapolis Center
12:39AM 43.4661 -98.2058 66° East 445 512 29,000  Level Minneapolis Center
12:40AM 43.5144 -98.0511 67° East 444 511 29,000  Level Minneapolis Center
12:41AM 43.5636 -97.8967 66° East 441 507 29,000  Level Minneapolis Center
12:42AM 43.6114 -97.7417 67° East 441 507 29,000  Level Minneapolis Center
12:43AM 43.6594 -97.5861 67° East 440 506 29,000  Level Minneapolis Center
12:45AM 43.7167 -97.4000 67° East 440 506 29,000  Level Minneapolis Center
12:46AM 43.7636 -97.2450 67° East 439 505 29,000  Level Minneapolis Center
12:47AM 43.8111 -97.0889 67° East 440 506 29,000  Level Minneapolis Center
12:48AM 43.8672 -96.9036 67° East 438 504 29,000  Level Minneapolis Center
12:49AM 43.9228 -96.7167 68° East 437 503 29,000  Level Minneapolis Center
12:50AM 43.9689 -96.5603 68° East 441 507 29,000  Level Minneapolis Center
12:51AM 44.0147 -96.4050 68° East 439 505 29,000  Level Minneapolis Center
12:52AM 44.0600 -96.2508 68° East 438 504 29,000  Level Minneapolis Center
12:53AM 44.1047 -96.1000 68° East 437 503 29,000  Level Minneapolis Center
12:54AM 44.1492 -95.9481 68° East 434 499 29,000  Level Minneapolis Center
12:55AM 44.1933 -95.7931 68° East 435 501 29,000  Level Minneapolis Center
12:56AM 44.2381 -95.6375 68° East 435 501 29,000  Level Minneapolis Center
12:57AM 44.2822 -95.4819 68° East 434 499 29,000  Level Minneapolis Center
12:58AM 44.3258 -95.3253 69° East 434 499 29,000  Level Minneapolis Center
12:59AM 44.3694 -95.1697 69° East 432 497 29,000  Level Minneapolis Center
01:00AM 44.4128 -95.0136 69° East 432 497 29,000 -300 Level Minneapolis Center
01:01AM 44.4581 -94.8572 68° East 434 499 28,400 -2,040 Descending Minneapolis Center
01:02AM 44.5003 -94.7000 69° East 433 498 24,900 -3,660 Descending Minneapolis Center
01:03AM 44.5475 -94.5228 69° East 430 495 21,100 -3,600 Descending Minneapolis Center
01:04AM 44.5906 -94.3683 69° East 427 491 17,800 -3,240 Descending Minneapolis Center
01:05AM 44.6306 -94.2189 69° East 408 470 14,700 -2,820 Descending Minneapolis Center
01:06AM 44.6622 -94.0742 73° East 391 450 12,200 -2,280 Descending Minneapolis Center
01:07AM 44.6753 -93.9269 83° East 378 435 10,200 -1,200 Descending Minneapolis Center
01:08AM 44.6864 -93.8058 83° East 307 353 9,800 -600 Descending Minneapolis Center
01:09AM 44.6964 -93.6950 83° East 288 331 9,000 -660 Descending Minneapolis Center
01:10AM 44.7064 -93.5850 83° East 284 327 8,500 -960 Descending Minneapolis Center
01:11AM 44.7158 -93.4769 83° East 282 325 7,100 -780 Descending Minneapolis Center
01:12AM 44.7250 -93.3683 83° East 281 323 7,000 -780 Descending Minneapolis Center
01:13AM 44.7336 -93.2631 83° East 276 318 5,600 -1,020 Descending Minneapolis Center
01:14AM 44.7422 -93.1692 83° East 264 304 5,000 -900 Descending Minneapolis Center
01:15AM 44.7622 -93.0775 73° East 212 244 3,900 -1,020 Descending Minneapolis Center
01:16AM 44.8106 -93.0639 11° North 200 230 3,000 -900 Descending Minneapolis Center
01:17AM 44.8383 -93.1203 305° West 179 206 2,200 -840 Descending Minneapolis Center
01:18AM 44.8597 -93.1689 302° West 151 174 1,400 -840 Descending Minneapolis Center